sensor_id;sensor_type;location;lat;lon;timestamp;P1;durP1;ratioP1;P2;durP2;ratioP2
33738;SDS011;20063;51.730;11.110;2023-04-29T00:01:25;24.52;;;18.58;;
33738;SDS011;20063;51.730;11.110;2023-04-29T00:03:51;25.00;;;18.02;;
33738;SDS011;20063;51.730;11.110;2023-04-29T00:06:17;23.25;;;17.50;;
33738;SDS011;20063;51.730;11.110;2023-04-29T00:08:42;24.52;;;18.55;;
33738;SDS011;20063;51.730;11.110;2023-04-29T00:11:09;25.33;;;17.63;;
33738;SDS011;20063;51.730;11.110;2023-04-29T00:13:35;25.08;;;16.75;;
33738;SDS011;20063;51.730;11.110;2023-04-29T00:16:03;21.00;;;15.73;;
33738;SDS011;20063;51.730;11.110;2023-04-29T00:18:29;24.33;;;16.13;;
33738;SDS011;20063;51.730;11.110;2023-04-29T00:20:57;20.63;;;15.18;;
33738;SDS011;20063;51.730;11.110;2023-04-29T00:23:22;21.58;;;16.83;;
33738;SDS011;20063;51.730;11.110;2023-04-29T00:25:50;20.70;;;15.55;;
33738;SDS011;20063;51.730;11.110;2023-04-29T00:28:19;18.83;;;15.00;;
33738;SDS011;20063;51.730;11.110;2023-04-29T00:30:44;20.17;;;14.50;;
33738;SDS011;20063;51.730;11.110;2023-04-29T00:33:10;17.85;;;13.50;;
33738;SDS011;20063;51.730;11.110;2023-04-29T00:35:36;21.20;;;12.38;;
33738;SDS011;20063;51.730;11.110;2023-04-29T00:38:02;17.98;;;11.45;;
33738;SDS011;20063;51.730;11.110;2023-04-29T00:40:27;17.90;;;10.90;;
33738;SDS011;20063;51.730;11.110;2023-04-29T00:42:53;14.82;;;10.55;;
33738;SDS011;20063;51.730;11.110;2023-04-29T00:45:19;11.45;;;9.20;;
33738;SDS011;20063;51.730;11.110;2023-04-29T00:47:44;15.93;;;9.07;;
33738;SDS011;20063;51.730;11.110;2023-04-29T00:50:14;11.63;;;9.00;;
33738;SDS011;20063;51.730;11.110;2023-04-29T00:52:39;12.60;;;9.23;;
33738;SDS011;20063;51.730;11.110;2023-04-29T00:55:07;13.25;;;9.52;;
33738;SDS011;20063;51.730;11.110;2023-04-29T00:57:33;10.95;;;7.93;;
33738;SDS011;20063;51.730;11.110;2023-04-29T00:59:58;13.05;;;9.30;;
33738;SDS011;20063;51.730;11.110;2023-04-29T01:02:24;11.23;;;9.20;;
33738;SDS011;20063;51.730;11.110;2023-04-29T01:04:51;13.07;;;10.13;;
33738;SDS011;20063;51.730;11.110;2023-04-29T01:07:17;10.90;;;8.75;;
33738;SDS011;20063;51.730;11.110;2023-04-29T01:10:14;10.50;;;8.18;;
33738;SDS011;20063;51.730;11.110;2023-04-29T01:18:40;12.52;;;7.55;;
33738;SDS011;20063;51.730;11.110;2023-04-29T01:21:10;8.68;;;7.47;;
33738;SDS011;20063;51.730;11.110;2023-04-29T01:23:35;11.57;;;6.65;;
33738;SDS011;20063;51.730;11.110;2023-04-29T01:26:01;9.85;;;7.55;;
33738;SDS011;20063;51.730;11.110;2023-04-29T01:28:48;10.15;;;7.00;;
33738;SDS011;20063;51.730;11.110;2023-04-29T01:31:21;7.85;;;6.28;;
33738;SDS011;20063;51.730;11.110;2023-04-29T01:36:33;6.68;;;5.75;;
33738;SDS011;20063;51.730;11.110;2023-04-29T01:39:13;7.30;;;5.50;;
33738;SDS011;20063;51.730;11.110;2023-04-29T01:41:52;6.57;;;5.35;;
33738;SDS011;20063;51.730;11.110;2023-04-29T01:44:43;6.68;;;5.22;;
33738;SDS011;20063;51.730;11.110;2023-04-29T01:47:13;6.65;;;4.97;;
33738;SDS011;20063;51.730;11.110;2023-04-29T01:49:39;5.20;;;4.47;;
33738;SDS011;20063;51.730;11.110;2023-04-29T01:52:05;7.05;;;4.80;;
33738;SDS011;20063;51.730;11.110;2023-04-29T01:54:31;8.57;;;4.95;;
33738;SDS011;20063;51.730;11.110;2023-04-29T01:57:00;6.45;;;5.25;;
33738;SDS011;20063;51.730;11.110;2023-04-29T01:59:26;7.32;;;5.20;;
33738;SDS011;20063;51.730;11.110;2023-04-29T02:01:52;6.47;;;4.90;;
33738;SDS011;20063;51.730;11.110;2023-04-29T02:04:17;4.78;;;4.07;;
33738;SDS011;20063;51.730;11.110;2023-04-29T02:06:43;4.93;;;4.13;;
33738;SDS011;20063;51.730;11.110;2023-04-29T02:09:09;5.22;;;3.83;;
33738;SDS011;20063;51.730;11.110;2023-04-29T02:11:35;5.78;;;3.80;;
33738;SDS011;20063;51.730;11.110;2023-04-29T02:14:00;4.85;;;3.65;;
33738;SDS011;20063;51.730;11.110;2023-04-29T02:16:26;6.47;;;4.55;;
33738;SDS011;20063;51.730;11.110;2023-04-29T02:18:51;6.25;;;4.30;;
33738;SDS011;20063;51.730;11.110;2023-04-29T02:21:17;7.80;;;5.65;;
33738;SDS011;20063;51.730;11.110;2023-04-29T02:23:43;4.68;;;4.03;;
33738;SDS011;20063;51.730;11.110;2023-04-29T02:26:09;12.02;;;5.57;;
33738;SDS011;20063;51.730;11.110;2023-04-29T02:28:34;10.30;;;5.55;;
33738;SDS011;20063;51.730;11.110;2023-04-29T02:31:00;8.40;;;5.65;;
33738;SDS011;20063;51.730;11.110;2023-04-29T02:33:26;6.18;;;4.68;;
33738;SDS011;20063;51.730;11.110;2023-04-29T02:35:52;5.45;;;4.80;;
33738;SDS011;20063;51.730;11.110;2023-04-29T02:38:17;8.65;;;4.03;;
33738;SDS011;20063;51.730;11.110;2023-04-29T02:40:43;4.80;;;3.78;;
33738;SDS011;20063;51.730;11.110;2023-04-29T02:43:09;4.88;;;3.53;;
33738;SDS011;20063;51.730;11.110;2023-04-29T02:45:36;6.38;;;4.00;;
33738;SDS011;20063;51.730;11.110;2023-04-29T02:48:02;6.05;;;3.28;;
33738;SDS011;20063;51.730;11.110;2023-04-29T02:50:28;5.47;;;3.65;;
33738;SDS011;20063;51.730;11.110;2023-04-29T02:52:54;4.35;;;3.90;;
33738;SDS011;20063;51.730;11.110;2023-04-29T02:55:20;7.40;;;3.40;;
33738;SDS011;20063;51.730;11.110;2023-04-29T02:57:46;4.35;;;3.95;;
33738;SDS011;20063;51.730;11.110;2023-04-29T03:00:14;6.00;;;3.95;;
33738;SDS011;20063;51.730;11.110;2023-04-29T03:02:40;4.80;;;3.75;;
33738;SDS011;20063;51.730;11.110;2023-04-29T03:05:06;4.93;;;4.00;;
33738;SDS011;20063;51.730;11.110;2023-04-29T03:07:32;6.20;;;3.88;;
33738;SDS011;20063;51.730;11.110;2023-04-29T03:09:58;5.90;;;3.90;;
33738;SDS011;20063;51.730;11.110;2023-04-29T03:12:24;4.28;;;3.30;;
33738;SDS011;20063;51.730;11.110;2023-04-29T03:14:49;6.93;;;3.38;;
33738;SDS011;20063;51.730;11.110;2023-04-29T03:17:15;6.05;;;3.60;;
33738;SDS011;20063;51.730;11.110;2023-04-29T03:19:41;4.93;;;3.28;;
33738;SDS011;20063;51.730;11.110;2023-04-29T03:22:07;4.63;;;3.40;;
33738;SDS011;20063;51.730;11.110;2023-04-29T03:24:35;4.53;;;3.45;;
33738;SDS011;20063;51.730;11.110;2023-04-29T03:27:01;4.13;;;3.30;;
33738;SDS011;20063;51.730;11.110;2023-04-29T03:29:26;7.93;;;3.58;;
33738;SDS011;20063;51.730;11.110;2023-04-29T03:31:52;3.63;;;3.30;;
33738;SDS011;20063;51.730;11.110;2023-04-29T03:34:19;4.90;;;2.65;;
33738;SDS011;20063;51.730;11.110;2023-04-29T03:36:44;6.72;;;2.53;;
33738;SDS011;20063;51.730;11.110;2023-04-29T03:39:10;2.35;;;2.15;;
33738;SDS011;20063;51.730;11.110;2023-04-29T03:41:38;7.22;;;2.95;;
33738;SDS011;20063;51.730;11.110;2023-04-29T03:44:04;6.28;;;5.00;;
33738;SDS011;20063;51.730;11.110;2023-04-29T03:46:30;5.30;;;4.78;;
33738;SDS011;20063;51.730;11.110;2023-04-29T03:48:56;6.65;;;5.75;;
33738;SDS011;20063;51.730;11.110;2023-04-29T03:51:22;6.80;;;5.38;;
33738;SDS011;20063;51.730;11.110;2023-04-29T03:53:49;6.63;;;4.78;;
33738;SDS011;20063;51.730;11.110;2023-04-29T03:56:16;4.50;;;4.05;;
33738;SDS011;20063;51.730;11.110;2023-04-29T03:58:42;4.57;;;3.88;;
33738;SDS011;20063;51.730;11.110;2023-04-29T04:01:07;5.93;;;4.38;;
33738;SDS011;20063;51.730;11.110;2023-04-29T04:03:33;6.68;;;5.50;;
33738;SDS011;20063;51.730;11.110;2023-04-29T04:05:59;9.85;;;8.00;;
33738;SDS011;20063;51.730;11.110;2023-04-29T04:08:25;16.42;;;11.48;;
33738;SDS011;20063;51.730;11.110;2023-04-29T04:10:51;22.83;;;13.52;;
33738;SDS011;20063;51.730;11.110;2023-04-29T04:13:16;17.70;;;13.25;;
33738;SDS011;20063;51.730;11.110;2023-04-29T04:15:47;20.33;;;13.02;;
33738;SDS011;20063;51.730;11.110;2023-04-29T04:18:15;20.33;;;14.27;;
33738;SDS011;20063;51.730;11.110;2023-04-29T04:20:40;22.50;;;14.57;;
33738;SDS011;20063;51.730;11.110;2023-04-29T04:23:06;27.20;;;17.40;;
33738;SDS011;20063;51.730;11.110;2023-04-29T04:25:32;27.25;;;17.48;;
33738;SDS011;20063;51.730;11.110;2023-04-29T04:27:57;33.42;;;18.27;;
33738;SDS011;20063;51.730;11.110;2023-04-29T04:30:23;26.13;;;18.00;;
33738;SDS011;20063;51.730;11.110;2023-04-29T04:32:48;27.17;;;17.88;;
33738;SDS011;20063;51.730;11.110;2023-04-29T04:35:14;32.20;;;19.15;;
33738;SDS011;20063;51.730;11.110;2023-04-29T04:37:40;26.92;;;17.77;;
33738;SDS011;20063;51.730;11.110;2023-04-29T04:40:06;24.95;;;16.75;;
33738;SDS011;20063;51.730;11.110;2023-04-29T04:42:33;31.80;;;18.35;;
33738;SDS011;20063;51.730;11.110;2023-04-29T04:44:59;27.20;;;17.38;;
33738;SDS011;20063;51.730;11.110;2023-04-29T04:47:25;23.88;;;14.93;;
33738;SDS011;20063;51.730;11.110;2023-04-29T04:49:51;19.63;;;13.55;;
33738;SDS011;20063;51.730;11.110;2023-04-29T04:52:19;23.38;;;15.10;;
33738;SDS011;20063;51.730;11.110;2023-04-29T04:54:45;20.13;;;13.98;;
33738;SDS011;20063;51.730;11.110;2023-04-29T04:57:11;19.27;;;13.65;;
33738;SDS011;20063;51.730;11.110;2023-04-29T04:59:37;20.58;;;12.88;;
33738;SDS011;20063;51.730;11.110;2023-04-29T05:02:03;17.80;;;11.75;;
33738;SDS011;20063;51.730;11.110;2023-04-29T05:04:28;15.50;;;11.55;;
33738;SDS011;20063;51.730;11.110;2023-04-29T05:06:54;18.42;;;11.35;;
33738;SDS011;20063;51.730;11.110;2023-04-29T05:09:19;17.15;;;10.75;;
33738;SDS011;20063;51.730;11.110;2023-04-29T05:11:45;16.23;;;10.13;;
33738;SDS011;20063;51.730;11.110;2023-04-29T05:14:11;13.98;;;9.07;;
33738;SDS011;20063;51.730;11.110;2023-04-29T05:16:36;12.23;;;7.90;;
33738;SDS011;20063;51.730;11.110;2023-04-29T05:19:02;16.25;;;10.63;;
33738;SDS011;20063;51.730;11.110;2023-04-29T05:21:28;17.30;;;10.55;;
33738;SDS011;20063;51.730;11.110;2023-04-29T05:23:53;18.73;;;11.27;;
33738;SDS011;20063;51.730;11.110;2023-04-29T05:26:19;14.70;;;9.32;;
33738;SDS011;20063;51.730;11.110;2023-04-29T05:28:45;13.27;;;8.80;;
33738;SDS011;20063;51.730;11.110;2023-04-29T05:31:10;13.13;;;8.55;;
33738;SDS011;20063;51.730;11.110;2023-04-29T05:33:36;13.68;;;7.38;;
33738;SDS011;20063;51.730;11.110;2023-04-29T05:36:02;12.73;;;8.30;;
33738;SDS011;20063;51.730;11.110;2023-04-29T05:38:28;15.02;;;8.57;;
33738;SDS011;20063;51.730;11.110;2023-04-29T05:40:54;15.85;;;10.20;;
33738;SDS011;20063;51.730;11.110;2023-04-29T05:43:20;20.60;;;10.75;;
33738;SDS011;20063;51.730;11.110;2023-04-29T05:45:46;17.15;;;11.02;;
33738;SDS011;20063;51.730;11.110;2023-04-29T05:48:12;18.10;;;11.35;;
33738;SDS011;20063;51.730;11.110;2023-04-29T05:50:41;16.77;;;10.90;;
33738;SDS011;20063;51.730;11.110;2023-04-29T05:53:07;20.05;;;11.20;;
33738;SDS011;20063;51.730;11.110;2023-04-29T05:55:32;18.05;;;12.35;;
33738;SDS011;20063;51.730;11.110;2023-04-29T05:57:58;20.15;;;12.27;;
33738;SDS011;20063;51.730;11.110;2023-04-29T06:00:24;20.23;;;12.48;;
33738;SDS011;20063;51.730;11.110;2023-04-29T06:02:49;20.70;;;13.50;;
33738;SDS011;20063;51.730;11.110;2023-04-29T06:05:15;24.08;;;14.77;;
33738;SDS011;20063;51.730;11.110;2023-04-29T06:07:40;24.67;;;15.77;;
33738;SDS011;20063;51.730;11.110;2023-04-29T06:10:07;26.63;;;17.13;;
33738;SDS011;20063;51.730;11.110;2023-04-29T06:12:33;24.10;;;16.00;;
33738;SDS011;20063;51.730;11.110;2023-04-29T06:14:59;27.65;;;18.23;;
33738;SDS011;20063;51.730;11.110;2023-04-29T06:17:24;28.08;;;17.88;;
33738;SDS011;20063;51.730;11.110;2023-04-29T06:19:53;35.70;;;24.75;;
33738;SDS011;20063;51.730;11.110;2023-04-29T06:22:19;37.13;;;23.48;;
33738;SDS011;20063;51.730;11.110;2023-04-29T06:24:44;42.03;;;28.83;;
33738;SDS011;20063;51.730;11.110;2023-04-29T06:27:11;42.67;;;28.35;;
33738;SDS011;20063;51.730;11.110;2023-04-29T06:29:36;41.92;;;28.40;;
33738;SDS011;20063;51.730;11.110;2023-04-29T06:32:02;49.83;;;29.90;;
33738;SDS011;20063;51.730;11.110;2023-04-29T06:34:29;47.03;;;30.13;;
33738;SDS011;20063;51.730;11.110;2023-04-29T06:36:54;47.03;;;30.55;;
33738;SDS011;20063;51.730;11.110;2023-04-29T06:39:20;48.05;;;31.48;;
33738;SDS011;20063;51.730;11.110;2023-04-29T06:41:46;44.30;;;30.30;;
33738;SDS011;20063;51.730;11.110;2023-04-29T06:44:11;50.90;;;29.60;;
33738;SDS011;20063;51.730;11.110;2023-04-29T06:46:38;45.10;;;29.02;;
33738;SDS011;20063;51.730;11.110;2023-04-29T06:49:03;46.58;;;29.88;;
33738;SDS011;20063;51.730;11.110;2023-04-29T06:51:30;40.15;;;26.90;;
33738;SDS011;20063;51.730;11.110;2023-04-29T06:53:56;43.50;;;29.40;;
33738;SDS011;20063;51.730;11.110;2023-04-29T06:56:21;39.15;;;26.55;;
33738;SDS011;20063;51.730;11.110;2023-04-29T06:58:47;43.08;;;30.05;;
33738;SDS011;20063;51.730;11.110;2023-04-29T07:01:13;37.08;;;26.67;;
33738;SDS011;20063;51.730;11.110;2023-04-29T07:03:38;38.30;;;26.15;;
33738;SDS011;20063;51.730;11.110;2023-04-29T07:06:04;39.95;;;26.25;;
33738;SDS011;20063;51.730;11.110;2023-04-29T07:08:30;34.22;;;25.08;;
33738;SDS011;20063;51.730;11.110;2023-04-29T07:10:56;37.92;;;25.08;;
33738;SDS011;20063;51.730;11.110;2023-04-29T07:13:22;34.53;;;24.80;;
33738;SDS011;20063;51.730;11.110;2023-04-29T07:15:49;32.17;;;22.63;;
33738;SDS011;20063;51.730;11.110;2023-04-29T07:18:15;36.15;;;24.65;;
33738;SDS011;20063;51.730;11.110;2023-04-29T07:20:41;33.67;;;24.45;;
33738;SDS011;20063;51.730;11.110;2023-04-29T07:23:08;34.42;;;24.17;;
33738;SDS011;20063;51.730;11.110;2023-04-29T07:25:34;35.63;;;25.13;;
33738;SDS011;20063;51.730;11.110;2023-04-29T07:28:00;37.15;;;26.75;;
33738;SDS011;20063;51.730;11.110;2023-04-29T07:30:25;44.58;;;29.77;;
33738;SDS011;20063;51.730;11.110;2023-04-29T07:32:53;39.53;;;29.25;;
33738;SDS011;20063;51.730;11.110;2023-04-29T07:35:18;46.70;;;31.50;;
33738;SDS011;20063;51.730;11.110;2023-04-29T07:37:44;50.13;;;34.22;;
33738;SDS011;20063;51.730;11.110;2023-04-29T07:40:10;56.13;;;35.92;;
33738;SDS011;20063;51.730;11.110;2023-04-29T07:42:36;60.38;;;39.17;;
33738;SDS011;20063;51.730;11.110;2023-04-29T07:45:01;66.93;;;41.33;;
33738;SDS011;20063;51.730;11.110;2023-04-29T07:47:27;69.90;;;42.20;;
33738;SDS011;20063;51.730;11.110;2023-04-29T07:49:53;67.22;;;42.13;;
33738;SDS011;20063;51.730;11.110;2023-04-29T07:52:19;71.53;;;45.30;;
33738;SDS011;20063;51.730;11.110;2023-04-29T07:54:44;76.57;;;44.53;;
33738;SDS011;20063;51.730;11.110;2023-04-29T07:57:10;75.32;;;45.47;;
33738;SDS011;20063;51.730;11.110;2023-04-29T07:59:35;74.95;;;43.83;;
33738;SDS011;20063;51.730;11.110;2023-04-29T08:02:01;77.20;;;45.33;;
33738;SDS011;20063;51.730;11.110;2023-04-29T08:04:28;92.68;;;49.33;;
33738;SDS011;20063;51.730;11.110;2023-04-29T08:06:54;91.07;;;47.20;;
33738;SDS011;20063;51.730;11.110;2023-04-29T08:09:20;78.60;;;45.42;;
33738;SDS011;20063;51.730;11.110;2023-04-29T08:11:45;91.07;;;48.08;;
33738;SDS011;20063;51.730;11.110;2023-04-29T08:14:11;86.65;;;48.47;;
33738;SDS011;20063;51.730;11.110;2023-04-29T08:16:37;95.75;;;51.83;;
33738;SDS011;20063;51.730;11.110;2023-04-29T08:19:02;92.32;;;51.15;;
33738;SDS011;20063;51.730;11.110;2023-04-29T08:21:28;99.70;;;52.50;;
33738;SDS011;20063;51.730;11.110;2023-04-29T08:23:56;88.80;;;50.25;;
33738;SDS011;20063;51.730;11.110;2023-04-29T08:26:21;109.28;;;56.45;;
33738;SDS011;20063;51.730;11.110;2023-04-29T08:28:47;122.03;;;63.47;;
33738;SDS011;20063;51.730;11.110;2023-04-29T08:31:17;124.63;;;64.25;;
33738;SDS011;20063;51.730;11.110;2023-04-29T08:33:44;130.13;;;66.85;;
33738;SDS011;20063;51.730;11.110;2023-04-29T08:36:10;134.48;;;68.70;;
33738;SDS011;20063;51.730;11.110;2023-04-29T08:38:35;143.65;;;72.35;;
33738;SDS011;20063;51.730;11.110;2023-04-29T08:41:01;144.77;;;71.93;;
33738;SDS011;20063;51.730;11.110;2023-04-29T08:43:27;136.80;;;71.25;;
33738;SDS011;20063;51.730;11.110;2023-04-29T08:45:56;119.13;;;64.22;;
33738;SDS011;20063;51.730;11.110;2023-04-29T08:48:23;86.03;;;48.45;;
33738;SDS011;20063;51.730;11.110;2023-04-29T08:50:50;72.05;;;41.13;;
33738;SDS011;20063;51.730;11.110;2023-04-29T08:53:17;76.97;;;44.00;;
33738;SDS011;20063;51.730;11.110;2023-04-29T08:55:44;60.13;;;36.58;;
33738;SDS011;20063;51.730;11.110;2023-04-29T08:58:11;58.30;;;32.83;;
33738;SDS011;20063;51.730;11.110;2023-04-29T09:00:39;43.15;;;28.35;;
33738;SDS011;20063;51.730;11.110;2023-04-29T09:03:30;40.10;;;23.17;;
33738;SDS011;20063;51.730;11.110;2023-04-29T09:05:59;31.98;;;20.88;;
33738;SDS011;20063;51.730;11.110;2023-04-29T09:08:27;31.08;;;21.23;;
33738;SDS011;20063;51.730;11.110;2023-04-29T09:10:54;35.42;;;21.42;;
33738;SDS011;20063;51.730;11.110;2023-04-29T09:13:25;36.17;;;21.85;;
33738;SDS011;20063;51.730;11.110;2023-04-29T09:15:52;35.88;;;21.75;;
33738;SDS011;20063;51.730;11.110;2023-04-29T09:23:37;36.85;;;22.05;;
33738;SDS011;20063;51.730;11.110;2023-04-29T09:26:03;30.75;;;20.30;;
33738;SDS011;20063;51.730;11.110;2023-04-29T09:28:28;30.92;;;21.10;;
33738;SDS011;20063;51.730;11.110;2023-04-29T09:30:54;33.42;;;20.98;;
33738;SDS011;20063;51.730;11.110;2023-04-29T09:33:19;34.42;;;20.45;;
33738;SDS011;20063;51.730;11.110;2023-04-29T09:35:45;36.80;;;21.02;;
33738;SDS011;20063;51.730;11.110;2023-04-29T09:38:13;35.28;;;22.55;;
33738;SDS011;20063;51.730;11.110;2023-04-29T09:40:42;37.03;;;23.00;;
33738;SDS011;20063;51.730;11.110;2023-04-29T09:43:15;38.85;;;24.10;;
33738;SDS011;20063;51.730;11.110;2023-04-29T09:45:46;38.03;;;24.63;;
33738;SDS011;20063;51.730;11.110;2023-04-29T09:48:13;35.65;;;23.67;;
33738;SDS011;20063;51.730;11.110;2023-04-29T09:50:41;36.58;;;24.08;;
33738;SDS011;20063;51.730;11.110;2023-04-29T09:53:09;35.22;;;23.70;;
33738;SDS011;20063;51.730;11.110;2023-04-29T09:56:08;38.97;;;25.20;;
33738;SDS011;20063;51.730;11.110;2023-04-29T09:58:32;36.63;;;23.67;;
33738;SDS011;20063;51.730;11.110;2023-04-29T10:01:03;37.20;;;22.65;;
33738;SDS011;20063;51.730;11.110;2023-04-29T10:03:30;35.58;;;22.00;;
33738;SDS011;20063;51.730;11.110;2023-04-29T10:05:59;29.30;;;19.85;;
33738;SDS011;20063;51.730;11.110;2023-04-29T10:08:29;33.10;;;20.75;;
33738;SDS011;20063;51.730;11.110;2023-04-29T10:11:00;31.35;;;21.27;;
33738;SDS011;20063;51.730;11.110;2023-04-29T10:13:31;32.42;;;20.08;;
33738;SDS011;20063;51.730;11.110;2023-04-29T10:18:36;29.00;;;20.05;;
33738;SDS011;20063;51.730;11.110;2023-04-29T10:21:08;27.40;;;18.85;;
33738;SDS011;20063;51.730;11.110;2023-04-29T10:23:36;26.63;;;19.88;;
33738;SDS011;20063;51.730;11.110;2023-04-29T10:26:02;26.42;;;18.50;;
33738;SDS011;20063;51.730;11.110;2023-04-29T10:28:30;25.70;;;17.33;;
33738;SDS011;20063;51.730;11.110;2023-04-29T10:30:57;22.73;;;16.50;;
33738;SDS011;20063;51.730;11.110;2023-04-29T10:33:31;20.20;;;15.70;;
33738;SDS011;20063;51.730;11.110;2023-04-29T10:35:59;25.00;;;15.80;;
33738;SDS011;20063;51.730;11.110;2023-04-29T10:38:27;24.27;;;15.88;;
33738;SDS011;20063;51.730;11.110;2023-04-29T10:40:59;21.55;;;16.08;;
33738;SDS011;20063;51.730;11.110;2023-04-29T10:43:32;19.50;;;14.77;;
33738;SDS011;20063;51.730;11.110;2023-04-29T10:48:59;21.88;;;14.57;;
33738;SDS011;20063;51.730;11.110;2023-04-29T10:51:42;25.33;;;13.50;;
33738;SDS011;20063;51.730;11.110;2023-04-29T10:54:13;17.05;;;12.85;;
33738;SDS011;20063;51.730;11.110;2023-04-29T10:56:46;21.23;;;13.55;;
33738;SDS011;20063;51.730;11.110;2023-04-29T10:59:22;17.05;;;11.48;;
33738;SDS011;20063;51.730;11.110;2023-04-29T11:02:07;17.70;;;11.82;;
33738;SDS011;20063;51.730;11.110;2023-04-29T11:04:34;18.88;;;12.43;;
33738;SDS011;20063;51.730;11.110;2023-04-29T11:07:34;22.50;;;14.05;;
33738;SDS011;20063;51.730;11.110;2023-04-29T11:10:00;21.90;;;12.82;;
33738;SDS011;20063;51.730;11.110;2023-04-29T11:12:27;19.42;;;14.07;;
33738;SDS011;20063;51.730;11.110;2023-04-29T11:14:52;19.13;;;12.82;;
33738;SDS011;20063;51.730;11.110;2023-04-29T11:17:25;19.15;;;13.20;;
33738;SDS011;20063;51.730;11.110;2023-04-29T11:20:00;16.77;;;12.63;;
33738;SDS011;20063;51.730;11.110;2023-04-29T11:22:29;18.10;;;13.15;;
33738;SDS011;20063;51.730;11.110;2023-04-29T11:25:01;23.58;;;14.60;;
33738;SDS011;20063;51.730;11.110;2023-04-29T11:27:40;15.02;;;12.38;;
33738;SDS011;20063;51.730;11.110;2023-04-29T11:30:07;21.60;;;14.50;;
33738;SDS011;20063;51.730;11.110;2023-04-29T11:32:37;24.00;;;14.05;;
33738;SDS011;20063;51.730;11.110;2023-04-29T11:37:33;32.75;;;14.93;;
33738;SDS011;20063;51.730;11.110;2023-04-29T11:39:59;21.83;;;14.45;;
33738;SDS011;20063;51.730;11.110;2023-04-29T11:42:25;22.92;;;14.85;;
33738;SDS011;20063;51.730;11.110;2023-04-29T11:44:52;20.15;;;13.45;;
33738;SDS011;20063;51.730;11.110;2023-04-29T11:47:24;19.80;;;13.98;;
33738;SDS011;20063;51.730;11.110;2023-04-29T11:49:52;19.33;;;14.32;;
33738;SDS011;20063;51.730;11.110;2023-04-29T11:52:19;18.98;;;12.15;;
33738;SDS011;20063;51.730;11.110;2023-04-29T11:54:44;23.70;;;13.85;;
33738;SDS011;20063;51.730;11.110;2023-04-29T11:57:11;17.67;;;12.05;;
33738;SDS011;20063;51.730;11.110;2023-04-29T11:59:37;21.35;;;13.30;;
33738;SDS011;20063;51.730;11.110;2023-04-29T12:02:07;22.17;;;13.52;;
33738;SDS011;20063;51.730;11.110;2023-04-29T12:04:43;20.17;;;12.15;;
33738;SDS011;20063;51.730;11.110;2023-04-29T12:07:15;20.38;;;12.43;;
33738;SDS011;20063;51.730;11.110;2023-04-29T12:09:44;18.67;;;10.77;;
33738;SDS011;20063;51.730;11.110;2023-04-29T12:12:11;18.25;;;11.43;;
33738;SDS011;20063;51.730;11.110;2023-04-29T12:14:37;16.58;;;11.05;;
33738;SDS011;20063;51.730;11.110;2023-04-29T12:17:04;17.25;;;11.77;;
33738;SDS011;20063;51.730;11.110;2023-04-29T12:19:30;18.50;;;11.15;;
33738;SDS011;20063;51.730;11.110;2023-04-29T12:21:57;17.40;;;10.63;;
33738;SDS011;20063;51.730;11.110;2023-04-29T12:24:23;16.45;;;10.60;;
33738;SDS011;20063;51.730;11.110;2023-04-29T12:26:49;15.98;;;11.23;;
33738;SDS011;20063;51.730;11.110;2023-04-29T12:29:15;15.63;;;10.35;;
33738;SDS011;20063;51.730;11.110;2023-04-29T12:31:40;25.42;;;12.50;;
33738;SDS011;20063;51.730;11.110;2023-04-29T12:34:07;16.95;;;10.60;;
33738;SDS011;20063;51.730;11.110;2023-04-29T12:36:33;21.30;;;11.40;;
33738;SDS011;20063;51.730;11.110;2023-04-29T12:39:01;16.65;;;11.18;;
33738;SDS011;20063;51.730;11.110;2023-04-29T12:41:40;21.00;;;11.05;;
33738;SDS011;20063;51.730;11.110;2023-04-29T12:46:39;22.17;;;11.15;;
33738;SDS011;20063;51.730;11.110;2023-04-29T12:49:05;20.13;;;10.23;;
33738;SDS011;20063;51.730;11.110;2023-04-29T12:51:34;17.45;;;10.68;;
33738;SDS011;20063;51.730;11.110;2023-04-29T12:54:01;17.55;;;10.15;;
33738;SDS011;20063;51.730;11.110;2023-04-29T12:56:28;18.17;;;10.05;;
33738;SDS011;20063;51.730;11.110;2023-04-29T12:58:55;19.55;;;10.43;;
33738;SDS011;20063;51.730;11.110;2023-04-29T13:01:20;22.98;;;10.77;;
33738;SDS011;20063;51.730;11.110;2023-04-29T13:03:46;21.92;;;10.63;;
33738;SDS011;20063;51.730;11.110;2023-04-29T13:06:16;23.27;;;10.95;;
33738;SDS011;20063;51.730;11.110;2023-04-29T13:08:42;18.27;;;11.23;;
33738;SDS011;20063;51.730;11.110;2023-04-29T13:11:07;15.68;;;10.85;;
33738;SDS011;20063;51.730;11.110;2023-04-29T13:13:33;16.00;;;9.82;;
33738;SDS011;20063;51.730;11.110;2023-04-29T13:15:59;24.13;;;11.50;;
33738;SDS011;20063;51.730;11.110;2023-04-29T13:18:25;18.27;;;9.48;;
33738;SDS011;20063;51.730;11.110;2023-04-29T13:20:52;20.73;;;11.45;;
33738;SDS011;20063;51.730;11.110;2023-04-29T13:23:18;17.15;;;9.80;;
33738;SDS011;20063;51.730;11.110;2023-04-29T13:25:43;18.67;;;10.07;;
33738;SDS011;20063;51.730;11.110;2023-04-29T13:28:14;15.63;;;9.23;;
33738;SDS011;20063;51.730;11.110;2023-04-29T13:30:40;16.38;;;10.43;;
33738;SDS011;20063;51.730;11.110;2023-04-29T13:33:05;20.25;;;11.00;;
33738;SDS011;20063;51.730;11.110;2023-04-29T13:35:31;16.83;;;9.55;;
33738;SDS011;20063;51.730;11.110;2023-04-29T13:37:59;15.75;;;9.65;;
33738;SDS011;20063;51.730;11.110;2023-04-29T13:40:25;14.65;;;10.27;;
33738;SDS011;20063;51.730;11.110;2023-04-29T13:42:51;18.40;;;10.70;;
33738;SDS011;20063;51.730;11.110;2023-04-29T13:45:17;14.15;;;9.30;;
33738;SDS011;20063;51.730;11.110;2023-04-29T13:47:42;22.77;;;10.27;;
33738;SDS011;20063;51.730;11.110;2023-04-29T13:50:08;17.25;;;9.70;;
33738;SDS011;20063;51.730;11.110;2023-04-29T13:52:34;15.70;;;9.90;;
33738;SDS011;20063;51.730;11.110;2023-04-29T13:55:00;17.15;;;8.63;;
33738;SDS011;20063;51.730;11.110;2023-04-29T13:57:25;18.23;;;10.35;;
33738;SDS011;20063;51.730;11.110;2023-04-29T13:59:51;24.63;;;10.32;;
33738;SDS011;20063;51.730;11.110;2023-04-29T14:02:20;15.63;;;9.52;;
33738;SDS011;20063;51.730;11.110;2023-04-29T14:04:46;23.90;;;12.43;;
33738;SDS011;20063;51.730;11.110;2023-04-29T14:07:14;24.40;;;14.82;;
33738;SDS011;20063;51.730;11.110;2023-04-29T14:09:40;28.15;;;14.68;;
33738;SDS011;20063;51.730;11.110;2023-04-29T14:12:06;22.77;;;13.82;;
33738;SDS011;20063;51.730;11.110;2023-04-29T14:14:32;21.40;;;13.27;;
33738;SDS011;20063;51.730;11.110;2023-04-29T14:16:57;20.08;;;13.52;;
33738;SDS011;20063;51.730;11.110;2023-04-29T14:19:25;27.30;;;14.82;;
33738;SDS011;20063;51.730;11.110;2023-04-29T14:21:50;26.50;;;16.70;;
33738;SDS011;20063;51.730;11.110;2023-04-29T14:24:16;19.63;;;13.50;;
33738;SDS011;20063;51.730;11.110;2023-04-29T14:26:42;23.40;;;14.73;;
33738;SDS011;20063;51.730;11.110;2023-04-29T14:29:07;46.60;;;23.38;;
33738;SDS011;20063;51.730;11.110;2023-04-29T14:31:33;39.63;;;20.48;;
33738;SDS011;20063;51.730;11.110;2023-04-29T14:34:06;28.02;;;13.88;;
33738;SDS011;20063;51.730;11.110;2023-04-29T14:36:32;33.38;;;16.85;;
33738;SDS011;20063;51.730;11.110;2023-04-29T14:38:58;26.00;;;14.90;;